createdAt,value
2022-12-01T00:01:02.595Z,3.83
2022-12-01T00:03:33.359Z,3.85
2022-12-01T00:06:00.783Z,3.98
2022-12-01T00:08:28.270Z,4.03
2022-12-01T00:10:56.576Z,4.00
2022-12-01T00:13:23.237Z,4.06
2022-12-01T00:15:50.277Z,4.05
2022-12-01T00:18:16.937Z,4.09
2022-12-01T00:20:43.653Z,4.15
2022-12-01T00:23:10.272Z,4.16
2022-12-01T00:25:37.150Z,4.10
2022-12-01T00:28:04.006Z,4.13
2022-12-01T00:30:30.912Z,4.07
2022-12-01T00:32:57.596Z,4.01
2022-12-01T00:35:24.445Z,3.98
2022-12-01T00:37:51.156Z,3.98
2022-12-01T00:40:17.927Z,4.06
2022-12-01T00:42:44.566Z,4.14
2022-12-01T00:45:11.405Z,4.20
2022-12-01T00:47:38.080Z,4.27
2022-12-01T00:50:05.210Z,4.28
2022-12-01T00:52:31.896Z,4.34
2022-12-01T00:54:58.771Z,4.33
2022-12-01T00:57:25.519Z,4.37
2022-12-01T00:59:52.339Z,4.47
2022-12-01T01:02:19.250Z,4.35
2022-12-01T01:04:45.946Z,4.47
2022-12-01T01:07:12.711Z,4.37
2022-12-01T01:09:39.435Z,4.28
2022-12-01T01:12:06.344Z,4.34
2022-12-01T01:14:33.019Z,4.26
2022-12-01T01:16:59.843Z,4.22
2022-12-01T01:19:26.534Z,4.24
2022-12-01T01:21:53.347Z,4.17
2022-12-01T01:24:20.012Z,4.21
2022-12-01T01:26:46.948Z,4.08
2022-12-01T01:29:13.631Z,3.93
2022-12-01T01:31:40.499Z,4.03
2022-12-01T01:34:07.176Z,4.09
2022-12-01T01:36:34.146Z,4.02
2022-12-01T01:39:01.427Z,4.21
2022-12-01T01:41:28.947Z,4.26
2022-12-01T01:44:01.961Z,4.43
2022-12-01T01:46:33.947Z,4.46
2022-12-01T01:49:08.231Z,4.53
2022-12-01T01:51:43.397Z,4.53
2022-12-01T01:54:18.426Z,4.63
2022-12-01T01:56:46.088Z,4.58
2022-12-01T01:59:15.220Z,4.71
2022-12-01T02:01:42.061Z,4.79
2022-12-01T02:04:08.711Z,4.79
2022-12-01T02:06:35.859Z,4.72
2022-12-01T02:09:02.497Z,4.78
2022-12-01T02:11:53.812Z,4.80
2022-12-01T02:14:25.120Z,4.76
2022-12-01T02:17:25.966Z,4.84
2022-12-01T02:20:30.377Z,4.80
2022-12-01T02:23:06.006Z,4.83
2022-12-01T02:25:46.346Z,4.64
2022-12-01T02:28:37.214Z,4.54
2022-12-01T02:31:22.965Z,4.51
2022-12-01T02:33:54.415Z,4.38
2022-12-01T02:36:31.384Z,4.36
2022-12-01T02:39:23.152Z,4.28
2022-12-01T02:41:53.978Z,4.30
2022-12-01T02:44:26.204Z,4.24
2022-12-01T02:47:00.763Z,4.15
2022-12-01T02:49:32.546Z,4.10
2022-12-01T02:52:00.289Z,4.12
2022-12-01T02:54:29.945Z,4.07
2022-12-01T02:56:57.215Z,4.28
2022-12-01T02:59:24.103Z,4.21
2022-12-01T03:02:11.891Z,4.38
2022-12-01T03:04:44.742Z,4.45
2022-12-01T03:07:39.336Z,4.43
2022-12-01T03:10:41.627Z,4.43
2022-12-01T03:13:35.658Z,4.45
2022-12-01T03:16:12.873Z,4.45
2022-12-01T03:18:54.900Z,4.46
2022-12-01T03:21:33.866Z,4.47
2022-12-01T03:24:19.452Z,4.35
2022-12-01T03:26:52.476Z,4.40
2022-12-01T03:29:30.796Z,4.59
2022-12-01T03:32:14.340Z,4.50
2022-12-01T03:34:45.484Z,4.47
2022-12-01T03:37:31.936Z,4.27
2022-12-01T03:40:00.950Z,4.29
2022-12-01T03:42:39.123Z,4.33
2022-12-01T03:45:09.387Z,4.22
2022-12-01T03:47:37.854Z,4.25
2022-12-01T03:50:05.933Z,4.37
2022-12-01T03:52:41.471Z,4.30
2022-12-01T03:55:08.144Z,4.35
2022-12-01T03:57:41.579Z,4.34
2022-12-01T04:00:11.443Z,4.34
2022-12-01T04:02:41.288Z,4.47
2022-12-01T04:05:09.391Z,4.48
2022-12-01T04:07:37.549Z,4.40
2022-12-01T04:10:05.390Z,4.35
2022-12-01T04:12:35.407Z,4.46
2022-12-01T04:15:06.335Z,4.38
2022-12-01T04:17:33.099Z,4.34
2022-12-01T04:20:00.101Z,4.34
2022-12-01T04:22:27.155Z,4.20
2022-12-01T04:24:54.010Z,4.05
2022-12-01T04:27:21.124Z,3.98
2022-12-01T04:29:48.254Z,4.00
2022-12-01T04:32:15.543Z,4.05
2022-12-01T04:34:42.343Z,4.05
2022-12-01T04:37:10.186Z,4.07
2022-12-01T04:39:37.037Z,4.16
2022-12-01T04:42:04.328Z,4.26
2022-12-01T04:44:34.732Z,4.34
2022-12-01T04:47:03.439Z,4.30
2022-12-01T04:49:30.269Z,4.23
2022-12-01T04:51:57.164Z,4.17
2022-12-01T04:54:24.026Z,4.17
2022-12-01T04:56:50.971Z,4.27
2022-12-01T04:59:17.643Z,4.29
2022-12-01T05:01:44.828Z,4.35
2022-12-01T05:04:12.885Z,4.38
2022-12-01T05:06:40.189Z,4.45
2022-12-01T05:09:07.220Z,4.48
2022-12-01T05:11:34.676Z,4.45
2022-12-01T05:14:01.315Z,4.43
2022-12-01T05:16:31.900Z,4.43
2022-12-01T05:19:19.972Z,4.37
2022-12-01T05:21:48.586Z,4.46
2022-12-01T05:24:16.017Z,4.46
2022-12-01T05:26:44.047Z,4.50
2022-12-01T05:29:11.562Z,4.51
2022-12-01T05:31:39.783Z,4.51
2022-12-01T05:34:07.552Z,4.59
2022-12-01T05:36:34.257Z,4.55
2022-12-01T05:39:01.168Z,4.54
2022-12-01T05:41:27.862Z,4.48
2022-12-01T05:43:54.780Z,4.45
2022-12-01T05:46:21.567Z,4.43
2022-12-01T05:48:48.439Z,4.47
2022-12-01T05:51:16.520Z,4.42
2022-12-01T05:53:43.837Z,4.52
2022-12-01T05:56:10.864Z,4.54
2022-12-01T05:58:37.900Z,4.75
2022-12-01T06:01:04.663Z,4.64
2022-12-01T06:03:31.420Z,4.56
2022-12-01T06:05:58.172Z,4.56
2022-12-01T06:08:24.976Z,4.55
2022-12-01T06:10:51.653Z,4.57
2022-12-01T06:13:18.513Z,4.57
2022-12-01T06:15:45.218Z,4.61
2022-12-01T06:18:11.990Z,4.60
2022-12-01T06:20:38.737Z,4.54
2022-12-01T06:23:06.043Z,4.59
2022-12-01T06:25:32.804Z,4.58
2022-12-01T06:27:59.851Z,4.71
2022-12-01T06:30:26.735Z,4.75
2022-12-01T06:32:53.785Z,4.64
2022-12-01T06:35:20.592Z,4.70
2022-12-01T06:37:47.663Z,4.72
2022-12-01T06:40:14.769Z,4.72
2022-12-01T06:42:41.569Z,4.63
2022-12-01T06:45:09.017Z,4.67
2022-12-01T06:47:35.879Z,4.68
2022-12-01T06:50:02.849Z,4.61
2022-12-01T06:52:29.680Z,4.72
2022-12-01T06:54:56.395Z,4.67
2022-12-01T06:57:23.458Z,4.67
2022-12-01T06:59:50.629Z,4.80
2022-12-01T07:02:18.062Z,4.70
2022-12-01T07:04:45.300Z,4.70
2022-12-01T07:07:12.780Z,4.70
2022-12-01T07:09:39.533Z,4.68
2022-12-01T07:12:06.753Z,4.67
2022-12-01T07:14:34.227Z,4.65
2022-12-01T07:17:07.397Z,4.69
2022-12-01T07:19:35.260Z,4.65
2022-12-01T07:22:03.099Z,4.67
2022-12-01T07:24:30.987Z,4.62
2022-12-01T07:26:58.597Z,4.63
2022-12-01T07:29:25.596Z,4.57
2022-12-01T07:31:52.848Z,4.56
2022-12-01T07:34:20.219Z,4.53
2022-12-01T07:36:47.227Z,4.53
2022-12-01T07:39:13.895Z,4.59
2022-12-01T07:41:40.700Z,4.70
2022-12-01T07:44:10.419Z,4.70
2022-12-01T07:46:37.376Z,4.68
2022-12-01T07:49:06.990Z,4.77
2022-12-01T07:51:34.747Z,4.74
2022-12-01T07:54:03.863Z,4.87
2022-12-01T07:56:30.778Z,4.89
2022-12-01T07:58:57.483Z,4.97
2022-12-01T08:01:25.198Z,4.94
2022-12-01T08:03:53.961Z,4.89
2022-12-01T08:06:21.285Z,4.98
2022-12-01T08:08:48.773Z,4.97
2022-12-01T08:11:20.743Z,4.98
2022-12-01T08:13:47.960Z,5.04
2022-12-01T08:16:17.905Z,5.06
2022-12-01T08:18:45.069Z,5.03
2022-12-01T08:21:14.691Z,5.11
2022-12-01T08:23:42.296Z,5.12
2022-12-01T08:26:14.363Z,5.14
2022-12-01T08:28:41.556Z,5.14
2022-12-01T08:31:20.030Z,5.12
2022-12-01T08:33:47.797Z,5.15
2022-12-01T08:36:15.625Z,5.21
2022-12-01T08:38:46.589Z,5.22
2022-12-01T08:41:14.643Z,5.27
2022-12-01T08:44:00.438Z,5.27
2022-12-01T08:46:31.506Z,5.34
2022-12-01T08:48:58.363Z,5.28
2022-12-01T08:51:25.704Z,5.32
2022-12-01T08:53:52.440Z,5.33
2022-12-01T08:56:22.940Z,5.35
2022-12-01T08:58:51.124Z,5.30
2022-12-01T09:01:18.822Z,5.36
2022-12-01T09:03:45.764Z,5.46
2022-12-01T09:06:20.770Z,5.60
2022-12-01T09:08:48.211Z,5.51
2022-12-01T09:11:17.507Z,5.47
2022-12-01T09:13:49.872Z,5.44
2022-12-01T09:16:20.007Z,5.41
2022-12-01T09:18:47.882Z,5.49
2022-12-01T09:21:21.055Z,5.46
2022-12-01T09:23:48.415Z,5.54
2022-12-01T09:26:18.639Z,5.52
2022-12-01T09:28:47.203Z,5.52
2022-12-01T09:31:14.867Z,5.53
2022-12-01T09:33:41.630Z,5.61
2022-12-01T09:36:09.469Z,5.60
2022-12-01T09:38:37.611Z,5.62
2022-12-01T09:41:12.019Z,5.76
2022-12-01T09:43:46.382Z,5.77
2022-12-01T09:46:20.371Z,5.74
2022-12-01T09:48:48.745Z,5.54
2022-12-01T09:51:21.934Z,5.75
2022-12-01T09:53:54.848Z,5.89
2022-12-01T09:56:26.948Z,5.86
2022-12-01T09:58:57.631Z,5.85
2022-12-01T10:01:41.937Z,5.92
2022-12-01T10:04:33.443Z,5.96
2022-12-01T10:07:20.551Z,6.01
2022-12-01T10:09:58.274Z,6.30
2022-12-01T10:12:27.919Z,6.15
2022-12-01T10:15:10.920Z,6.09
2022-12-01T10:17:51.047Z,6.26
2022-12-01T10:20:28.927Z,6.26
2022-12-01T10:23:14.861Z,6.17
2022-12-01T10:25:50.909Z,6.24
2022-12-01T10:28:35.784Z,6.29
2022-12-01T10:31:13.817Z,6.31
2022-12-01T10:33:50.001Z,6.45
2022-12-01T10:36:16.817Z,6.49
2022-12-01T10:38:43.515Z,6.68
2022-12-01T10:41:12.485Z,6.60
2022-12-01T10:43:50.524Z,6.63
2022-12-01T10:46:45.449Z,6.80
2022-12-01T10:49:14.676Z,7.03
2022-12-01T10:51:49.218Z,7.00
2022-12-01T10:54:16.273Z,6.95
2022-12-01T10:56:47.115Z,6.87
2022-12-01T10:59:29.591Z,6.78
2022-12-01T11:01:57.546Z,6.77
2022-12-01T11:04:59.523Z,7.00
2022-12-01T11:07:42.645Z,7.23
2022-12-01T11:10:27.762Z,7.00
2022-12-01T11:13:18.310Z,6.92
2022-12-01T11:16:00.001Z,7.13
2022-12-01T11:18:33.688Z,6.89
2022-12-01T11:21:15.547Z,6.98
2022-12-01T11:23:46.083Z,6.99
2022-12-01T11:26:14.551Z,7.19
2022-12-01T11:28:54.007Z,7.20
2022-12-01T11:31:24.358Z,6.99
2022-12-01T11:33:53.245Z,7.09
2022-12-01T11:36:29.161Z,7.10
2022-12-01T11:38:58.646Z,7.01
2022-12-01T11:41:29.870Z,6.95
2022-12-01T11:44:01.816Z,7.12
2022-12-01T11:46:32.396Z,7.12
2022-12-01T11:49:00.445Z,7.19
2022-12-01T11:51:37.774Z,7.05
2022-12-01T11:54:19.072Z,7.05
2022-12-01T11:56:52.776Z,7.04
2022-12-01T11:59:31.282Z,7.00
2022-12-01T12:02:22.547Z,7.04
2022-12-01T12:05:06.744Z,6.95
2022-12-01T12:07:53.935Z,7.09
2022-12-01T12:10:26.606Z,6.94
2022-12-01T12:12:59.257Z,6.98
2022-12-01T12:15:28.998Z,7.02
2022-12-01T12:18:01.792Z,6.98
2022-12-01T12:20:31.448Z,6.94
2022-12-01T12:23:18.089Z,7.06
2022-12-01T12:25:52.718Z,7.02
2022-12-01T12:28:39.549Z,7.10
2022-12-01T12:31:19.830Z,7.13
2022-12-01T12:34:14.412Z,7.04
2022-12-01T12:37:01.991Z,7.12
2022-12-01T12:39:50.663Z,6.83
2022-12-01T12:42:46.490Z,6.86
2022-12-01T12:45:57.841Z,6.91
2022-12-01T12:49:18.644Z,6.92
2022-12-01T12:51:42.197Z,6.97
2022-12-01T12:54:17.797Z,6.76
2022-12-01T12:56:50.733Z,6.79
2022-12-01T12:59:24.827Z,6.69
2022-12-01T13:02:01.410Z,6.73
2022-12-01T13:04:53.521Z,6.70
2022-12-01T13:07:32.179Z,6.68
2022-12-01T13:10:07.128Z,6.69
2022-12-01T13:12:38.107Z,6.66
2022-12-01T13:15:17.185Z,6.54
2022-12-01T13:17:51.818Z,6.68
2022-12-01T13:20:21.834Z,6.63
2022-12-01T13:22:49.386Z,6.55
2022-12-01T13:25:38.299Z,6.52
2022-12-01T13:28:13.240Z,6.56
2022-12-01T13:30:40.050Z,6.54
2022-12-01T13:33:07.165Z,6.37
2022-12-01T13:35:36.650Z,6.27
2022-12-01T13:38:33.689Z,6.22
2022-12-01T13:41:18.691Z,6.32
2022-12-01T13:44:08.280Z,6.23
2022-12-01T13:46:44.021Z,6.36
2022-12-01T13:49:40.492Z,6.43
2022-12-01T13:52:31.494Z,6.50
2022-12-01T13:55:10.885Z,6.36
2022-12-01T13:57:40.174Z,6.43
2022-12-01T14:00:21.608Z,6.43
2022-12-01T14:03:17.568Z,6.40
2022-12-01T14:05:58.457Z,6.36
2022-12-01T14:08:34.156Z,6.28
2022-12-01T14:11:04.503Z,6.21
2022-12-01T14:13:34.061Z,6.24
2022-12-01T14:16:03.058Z,6.21
2022-12-01T14:18:39.492Z,6.22
2022-12-01T14:21:10.964Z,6.14
2022-12-01T14:23:41.312Z,6.13
2022-12-01T14:26:17.965Z,6.17
2022-12-01T14:29:00.115Z,6.10
2022-12-01T14:31:32.964Z,6.18
2022-12-01T14:34:02.779Z,6.08
2022-12-01T14:36:41.429Z,6.05
2022-12-01T14:39:15.691Z,5.83
2022-12-01T14:42:04.293Z,5.79
2022-12-01T14:44:44.977Z,5.82
2022-12-01T14:47:12.417Z,5.74
2022-12-01T14:50:06.993Z,5.73
2022-12-01T14:52:38.977Z,5.59
2022-12-01T14:55:21.167Z,5.52
2022-12-01T14:57:53.605Z,5.50
2022-12-01T15:00:23.658Z,5.58
2022-12-01T15:02:58.918Z,5.58
2022-12-01T15:05:29.343Z,5.54
2022-12-01T15:08:18.775Z,5.29
2022-12-01T15:10:53.884Z,5.29
2022-12-01T15:13:29.050Z,5.26
2022-12-01T15:16:16.049Z,5.38
2022-12-01T15:18:45.271Z,5.20
2022-12-01T15:21:15.814Z,5.08
2022-12-01T15:24:07.703Z,5.12
2022-12-01T15:26:40.222Z,5.19
2022-12-01T15:29:16.880Z,5.13
2022-12-01T15:31:50.674Z,5.28
2022-12-01T15:34:24.997Z,5.30
2022-12-01T15:36:55.570Z,5.12
2022-12-01T15:39:35.276Z,5.10
2022-12-01T15:42:04.879Z,5.15
2022-12-01T15:44:38.469Z,4.99
2022-12-01T15:47:32.190Z,4.95
2022-12-01T15:50:00.867Z,4.79
2022-12-01T15:52:28.618Z,4.88
2022-12-01T15:54:55.625Z,5.00
2022-12-01T15:57:22.647Z,5.20
2022-12-01T15:59:58.151Z,5.31
2022-12-01T16:02:32.686Z,5.16
2022-12-01T16:05:12.283Z,5.00
2022-12-01T16:08:11.470Z,4.85
2022-12-01T16:10:33.201Z,5.17
2022-12-01T16:13:38.267Z,5.05
2022-12-01T16:16:29.763Z,5.35
2022-12-01T16:19:04.004Z,5.24
2022-12-01T16:21:53.990Z,5.39
2022-12-01T16:24:52.665Z,5.44
2022-12-01T16:27:53.265Z,5.55
2022-12-01T16:30:25.337Z,5.55
2022-12-01T16:33:14.911Z,5.55
2022-12-01T16:35:47.783Z,5.49
2022-12-01T16:38:52.352Z,5.29
2022-12-01T16:41:55.403Z,5.23
2022-12-01T16:44:42.304Z,5.15
2022-12-01T16:47:18.145Z,5.22
2022-12-01T16:49:47.654Z,5.23
2022-12-01T16:55:47.256Z,5.27
2022-12-01T16:58:15.683Z,5.51
2022-12-01T17:00:43.047Z,5.53
2022-12-01T17:03:14.899Z,5.57
2022-12-01T17:05:53.815Z,5.55
2022-12-01T17:08:21.245Z,5.58
2022-12-01T17:10:52.197Z,5.53
2022-12-01T17:13:23.464Z,5.56
2022-12-01T17:15:52.607Z,5.60
2022-12-01T17:18:21.348Z,5.48
2022-12-01T17:20:59.472Z,5.59
2022-12-01T17:23:26.835Z,5.54
2022-12-01T17:25:54.128Z,5.63
2022-12-01T17:28:21.396Z,5.63
2022-12-01T17:30:48.140Z,5.52
2022-12-01T17:33:15.160Z,5.45
2022-12-01T17:35:42.229Z,5.49
2022-12-01T17:38:10.250Z,5.51
2022-12-01T17:40:37.131Z,5.51
2022-12-01T17:43:03.956Z,5.46
2022-12-01T17:45:30.587Z,5.51
2022-12-01T17:47:57.607Z,5.53
2022-12-01T17:50:24.249Z,5.54
2022-12-01T17:52:50.994Z,5.61
2022-12-01T17:55:17.789Z,5.48
2022-12-01T17:57:44.684Z,5.55
2022-12-01T18:00:12.067Z,5.56
2022-12-01T18:02:40.674Z,5.53
2022-12-01T18:05:08.472Z,5.59
2022-12-01T18:07:36.250Z,5.48
2022-12-01T18:10:03.063Z,5.47
2022-12-01T18:12:30.205Z,5.48
2022-12-01T18:14:56.878Z,5.60
2022-12-01T18:17:26.579Z,5.56
2022-12-01T18:19:55.362Z,5.66
2022-12-01T18:22:26.693Z,5.68
2022-12-01T18:24:58.061Z,5.60
2022-12-01T18:27:29.413Z,5.71
2022-12-01T18:29:59.293Z,5.65
2022-12-01T18:32:29.185Z,5.63
2022-12-01T18:35:04.967Z,5.69
2022-12-01T18:37:42.144Z,5.73
2022-12-01T18:40:17.013Z,5.66
2022-12-01T18:42:56.025Z,5.69
2022-12-01T18:45:31.405Z,5.70
2022-12-01T18:48:00.483Z,5.68
2022-12-01T18:50:27.374Z,5.70
2022-12-01T18:52:54.228Z,5.67
2022-12-01T18:55:22.733Z,5.71
2022-12-01T18:57:49.642Z,5.67
2022-12-01T19:00:16.843Z,5.78
2022-12-01T19:02:44.144Z,5.62
2022-12-01T19:05:10.983Z,5.65
2022-12-01T19:07:37.942Z,5.60
2022-12-01T19:10:05.325Z,5.54
2022-12-01T19:12:36.451Z,5.46
2022-12-01T19:15:06.862Z,5.54
2022-12-01T19:17:33.889Z,5.58
2022-12-01T19:20:00.646Z,5.52
2022-12-01T19:22:27.416Z,5.64
2022-12-01T19:24:54.454Z,5.62
2022-12-01T19:27:21.314Z,5.53
2022-12-01T19:29:50.061Z,5.58
2022-12-01T19:32:16.921Z,5.61
2022-12-01T19:34:43.859Z,5.67
2022-12-01T19:37:11.096Z,5.61
2022-12-01T19:39:38.656Z,5.60
2022-12-01T19:42:05.624Z,5.68
2022-12-01T19:44:32.559Z,5.66
2022-12-01T19:46:59.452Z,5.63
2022-12-01T19:49:26.439Z,5.69
2022-12-01T19:51:53.288Z,5.66
2022-12-01T19:54:20.483Z,5.55
2022-12-01T19:56:49.032Z,5.61
2022-12-01T19:59:15.967Z,5.63
2022-12-01T20:01:42.828Z,5.51
2022-12-01T20:04:09.545Z,5.63
2022-12-01T20:06:37.861Z,5.61
2022-12-01T20:09:06.278Z,5.70
2022-12-01T20:11:35.224Z,5.65
2022-12-01T20:14:03.417Z,5.68
2022-12-01T20:16:32.266Z,5.67
2022-12-01T20:19:01.408Z,5.61
2022-12-01T20:21:33.588Z,5.63
2022-12-01T20:24:02.818Z,5.63
2022-12-01T20:26:33.325Z,5.66
2022-12-01T20:29:03.332Z,5.56
2022-12-01T20:31:32.420Z,5.57
2022-12-01T20:34:03.012Z,5.56
2022-12-01T20:36:30.972Z,5.56
2022-12-01T20:38:58.585Z,5.51
2022-12-01T20:41:26.384Z,5.57
2022-12-01T20:43:54.103Z,5.54
2022-12-01T20:46:21.771Z,5.55
2022-12-01T20:48:49.276Z,5.50
2022-12-01T20:51:17.437Z,5.48
2022-12-01T20:54:05.539Z,5.37
2022-12-01T20:56:32.630Z,5.39
2022-12-01T20:59:00.003Z,5.33
2022-12-01T21:01:26.878Z,5.28
2022-12-01T21:03:53.906Z,5.27
2022-12-01T21:06:21.697Z,5.18
2022-12-01T21:08:49.741Z,5.23
2022-12-01T21:11:18.989Z,5.24
2022-12-01T21:13:46.786Z,5.22
2022-12-01T21:16:16.618Z,5.32
2022-12-01T21:18:53.486Z,5.30
2022-12-01T21:21:22.545Z,5.35
2022-12-01T21:24:26.121Z,5.32
2022-12-01T21:27:02.137Z,5.20
2022-12-01T21:29:38.919Z,5.24
2022-12-01T21:32:16.027Z,5.16
2022-12-01T21:34:43.801Z,5.07
2022-12-01T21:37:19.657Z,5.10
2022-12-01T21:39:50.932Z,5.21
2022-12-01T21:42:23.071Z,5.12
2022-12-01T21:44:50.734Z,5.02
2022-12-01T21:47:26.415Z,5.11
2022-12-01T21:49:54.834Z,5.06
2022-12-01T21:52:30.069Z,4.94
2022-12-01T21:55:02.778Z,5.02
2022-12-01T21:57:51.451Z,5.03
2022-12-01T22:00:27.445Z,4.92
2022-12-01T22:03:09.376Z,5.04
2022-12-01T22:05:42.857Z,5.03
2022-12-01T22:08:12.658Z,5.00
2022-12-01T22:10:58.073Z,5.01
2022-12-01T22:13:25.843Z,5.00
2022-12-01T22:15:54.605Z,4.95
2022-12-01T22:18:29.850Z,4.95
2022-12-01T22:20:56.613Z,4.90
2022-12-01T22:23:28.694Z,4.96
2022-12-01T22:25:55.487Z,4.80
2022-12-01T22:28:23.654Z,4.90
2022-12-01T22:30:50.488Z,4.88
2022-12-01T22:33:22.130Z,4.88
2022-12-01T22:35:50.922Z,4.89
2022-12-01T22:38:22.018Z,4.91
2022-12-01T22:40:48.655Z,4.88
2022-12-01T22:43:18.027Z,4.94
2022-12-01T22:45:47.768Z,4.85
2022-12-01T22:48:40.630Z,4.94
2022-12-01T22:51:25.120Z,4.81
2022-12-01T22:53:57.375Z,4.83
2022-12-01T22:56:35.162Z,4.74
2022-12-01T22:59:16.882Z,4.78
2022-12-01T23:01:49.581Z,4.88
2022-12-01T23:04:19.538Z,4.87
2022-12-01T23:06:49.553Z,4.79
2022-12-01T23:09:16.367Z,4.85
2022-12-01T23:11:44.217Z,4.88
2022-12-01T23:14:17.004Z,4.86
2022-12-01T23:16:43.867Z,4.72
2022-12-01T23:19:10.642Z,4.86
2022-12-01T23:21:37.431Z,4.80
2022-12-01T23:24:06.047Z,4.82
2022-12-01T23:26:32.900Z,4.79
2022-12-01T23:29:00.535Z,4.77
2022-12-01T23:31:27.841Z,4.73
2022-12-01T23:33:54.732Z,4.71
2022-12-01T23:36:26.802Z,4.79
2022-12-01T23:38:57.265Z,4.79
2022-12-01T23:41:33.865Z,4.81
2022-12-01T23:44:05.781Z,4.82
2022-12-01T23:46:32.786Z,4.81
2022-12-01T23:49:02.125Z,4.78
2022-12-01T23:51:32.681Z,4.73
2022-12-01T23:54:01.502Z,4.73
2022-12-01T23:56:30.938Z,4.77
2022-12-01T23:58:58.223Z,4.76
